Time;durP1;ratioP1;P1;durP2;ratioP2;P2;SDS_P1;SDS_P2;PMS_P1;PMS_P2;Temp;Humidity;BMP_temperature;BMP_pressure;BME280_temperature;BME280_humidity;BME280_pressure;Samples;Min_cycle;Max_cycle;Signal;HPM_P1;HPM_P2
2022/12/07 00:01:21;;;;;;;42.88;22.33;;;;;;;;;;4990422;28;20046;-64
2022/12/07 00:03:50;;;;;;;45.88;22.98;;;;;;;;;;4990498;28;20046;-64
2022/12/07 00:06:18;;;;;;;44.65;23.30;;;;;;;;;;4990364;28;20054;-64
2022/12/07 00:08:46;;;;;;;44.58;22.40;;;;;;;;;;4990053;28;20034;-64
2022/12/07 00:11:15;;;;;;;47.13;22.88;;;;;;;;;;4990364;28;20487;-64
2022/12/07 00:13:43;;;;;;;48.85;23.52;;;;;;;;;;4990290;28;20046;-64
2022/12/07 00:16:17;;;;;;;48.08;24.02;;;;;;;;;;4991401;28;20087;-64
2022/12/07 00:18:45;;;;;;;50.10;24.40;;;;;;;;;;4990232;28;20046;-64
2022/12/07 00:21:14;;;;;;;48.35;24.10;;;;;;;;;;4990239;28;20043;-64
2022/12/07 00:23:42;;;;;;;45.58;24.15;;;;;;;;;;4989932;28;20093;-64
2022/12/07 00:26:15;;;;;;;50.28;24.77;;;;;;;;;;4990026;28;20038;-64
2022/12/07 00:28:50;;;;;;;47.47;25.00;;;;;;;;;;4989795;28;20042;-64
2022/12/07 00:31:19;;;;;;;48.80;24.55;;;;;;;;;;4989980;28;20089;-63
2022/12/07 00:33:47;;;;;;;55.08;24.85;;;;;;;;;;4989938;28;20081;-64
2022/12/07 00:36:15;;;;;;;49.45;24.60;;;;;;;;;;4989864;28;20064;-64
2022/12/07 00:38:48;;;;;;;50.70;24.27;;;;;;;;;;4989865;28;20047;-64
2022/12/07 00:41:19;;;;;;;53.92;25.95;;;;;;;;;;4990039;28;20046;-64
2022/12/07 00:43:48;;;;;;;55.60;26.38;;;;;;;;;;4989723;28;20510;-64
2022/12/07 00:46:15;;;;;;;52.33;27.52;;;;;;;;;;4989812;28;20046;-64
2022/12/07 00:48:43;;;;;;;52.13;26.45;;;;;;;;;;4989898;28;20058;-63
2022/12/07 00:51:11;;;;;;;58.10;27.10;;;;;;;;;;4989625;28;20498;-63
2022/12/07 00:53:39;;;;;;;54.85;25.98;;;;;;;;;;4989750;28;20042;-63
2022/12/07 00:56:09;;;;;;;53.92;25.42;;;;;;;;;;4988267;28;20062;-63
2022/12/07 00:58:37;;;;;;;50.42;25.67;;;;;;;;;;4989569;28;20427;-63
2022/12/07 01:01:06;;;;;;;51.97;24.40;;;;;;;;;;4989338;28;20416;-63
2022/12/07 01:03:33;;;;;;;51.33;24.83;;;;;;;;;;4989561;28;20045;-64
2022/12/07 01:06:01;;;;;;;59.25;27.70;;;;;;;;;;4989431;28;20042;-64
2022/12/07 01:08:29;;;;;;;61.72;27.85;;;;;;;;;;4990467;28;20053;-63
2022/12/07 01:11:07;;;;;;;56.50;25.33;;;;;;;;;;4992777;28;20046;-64
2022/12/07 01:13:35;;;;;;;49.05;23.40;;;;;;;;;;4992831;28;20076;-63
2022/12/07 01:16:05;;;;;;;52.95;24.35;;;;;;;;;;4992938;28;20103;-64
2022/12/07 01:18:34;;;;;;;56.33;25.42;;;;;;;;;;4992702;28;20051;-63
2022/12/07 01:21:10;;;;;;;51.30;23.88;;;;;;;;;;4992397;28;20050;-64
2022/12/07 01:23:38;;;;;;;57.70;22.83;;;;;;;;;;4992620;28;20041;-64
2022/12/07 01:26:06;;;;;;;49.70;22.95;;;;;;;;;;4992585;28;20552;-64
2022/12/07 01:28:34;;;;;;;53.63;23.23;;;;;;;;;;4991522;28;20046;-64
2022/12/07 01:31:03;;;;;;;52.42;22.95;;;;;;;;;;4992356;28;20080;-64
2022/12/07 01:33:32;;;;;;;53.55;23.02;;;;;;;;;;4992543;28;20042;-64
2022/12/07 01:36:04;;;;;;;53.70;23.27;;;;;;;;;;4992433;28;20081;-64
2022/12/07 01:38:32;;;;;;;54.08;22.88;;;;;;;;;;4992459;28;20037;-64
2022/12/07 01:41:00;;;;;;;48.95;22.55;;;;;;;;;;4990979;28;20089;-64
2022/12/07 01:43:29;;;;;;;48.40;22.52;;;;;;;;;;4992376;28;20544;-64
2022/12/07 01:45:56;;;;;;;52.00;22.45;;;;;;;;;;4991202;28;20096;-64
2022/12/07 01:48:44;;;;;;;51.53;21.73;;;;;;;;;;4992624;28;20079;-64
2022/12/07 01:51:14;;;;;;;48.75;22.30;;;;;;;;;;4992442;28;20137;-64
2022/12/07 01:53:44;;;;;;;44.97;22.27;;;;;;;;;;4992455;28;20068;-64
2022/12/07 01:56:14;;;;;;;48.80;21.50;;;;;;;;;;4992292;28;20056;-64
2022/12/07 01:58:41;;;;;;;50.67;23.65;;;;;;;;;;4992158;28;20138;-64
2022/12/07 02:01:09;;;;;;;52.00;22.00;;;;;;;;;;4990599;28;20565;-64
2022/12/07 02:03:38;;;;;;;54.47;24.35;;;;;;;;;;4992051;28;20046;-64
2022/12/07 02:06:07;;;;;;;52.70;22.65;;;;;;;;;;4992118;28;20438;-64
2022/12/07 02:08:35;;;;;;;48.22;21.65;;;;;;;;;;4992016;28;20129;-64
2022/12/07 02:11:04;;;;;;;50.35;22.45;;;;;;;;;;4990901;28;20454;-64
2022/12/07 02:13:33;;;;;;;51.88;21.95;;;;;;;;;;4991823;28;20045;-64
2022/12/07 02:16:20;;;;;;;49.60;22.10;;;;;;;;;;4991948;28;20373;-63
2022/12/07 02:19:02;;;;;;;47.22;23.77;;;;;;;;;;4991130;28;20073;-63
2022/12/07 02:21:44;;;;;;;49.47;22.63;;;;;;;;;;4990220;28;20047;-63
2022/12/07 02:24:30;;;;;;;48.10;22.85;;;;;;;;;;4991652;28;20054;-63
2022/12/07 02:27:00;;;;;;;44.42;22.60;;;;;;;;;;4990723;28;20046;-63
2022/12/07 02:29:29;;;;;;;51.40;23.20;;;;;;;;;;4991689;28;20563;-63
2022/12/07 02:32:20;;;;;;;46.20;22.15;;;;;;;;;;4991302;28;20104;-63
2022/12/07 02:34:55;;;;;;;43.85;20.52;;;;;;;;;;4993684;28;20504;-63
2022/12/07 02:37:27;;;;;;;45.63;21.02;;;;;;;;;;4991690;28;20053;-63
2022/12/07 02:40:17;;;;;;;47.20;21.67;;;;;;;;;;4991450;28;20047;-63
2022/12/07 02:42:52;;;;;;;48.63;21.20;;;;;;;;;;4991484;28;20047;-63
2022/12/07 02:45:21;;;;;;;53.47;22.38;;;;;;;;;;4991506;28;20057;-63
2022/12/07 02:47:52;;;;;;;48.80;21.98;;;;;;;;;;4991454;28;20514;-63
2022/12/07 02:50:20;;;;;;;53.38;21.85;;;;;;;;;;4991361;28;20488;-63
2022/12/07 02:52:48;;;;;;;59.35;21.35;;;;;;;;;;4991338;28;20501;-63
2022/12/07 02:55:18;;;;;;;56.78;22.45;;;;;;;;;;4991247;28;20042;-62
2022/12/07 02:57:45;;;;;;;59.20;21.80;;;;;;;;;;4991230;28;20039;-63
2022/12/07 03:00:15;;;;;;;64.18;23.27;;;;;;;;;;4991378;28;20046;-63
2022/12/07 03:02:55;;;;;;;70.10;23.08;;;;;;;;;;4991067;28;20042;-63
2022/12/07 03:05:38;;;;;;;67.45;22.63;;;;;;;;;;4991230;28;20083;-63
2022/12/07 03:08:05;;;;;;;73.75;22.90;;;;;;;;;;4991347;28;20043;-63
2022/12/07 03:10:33;;;;;;;75.88;23.85;;;;;;;;;;4990843;28;20056;-63
2022/12/07 03:13:00;;;;;;;77.72;23.67;;;;;;;;;;4990797;28;20039;-63
2022/12/07 03:15:32;;;;;;;76.78;24.85;;;;;;;;;;4990942;28;20038;-63
2022/12/07 03:18:00;;;;;;;84.93;28.90;;;;;;;;;;4990915;28;20411;-63
2022/12/07 03:20:30;;;;;;;83.43;27.98;;;;;;;;;;4991009;28;20046;-63
2022/12/07 03:22:58;;;;;;;84.60;28.48;;;;;;;;;;4989688;28;20658;-64
2022/12/07 03:25:26;;;;;;;81.53;27.85;;;;;;;;;;4990800;28;20389;-63
2022/12/07 03:27:56;;;;;;;79.03;28.33;;;;;;;;;;4990728;28;20499;-63
2022/12/07 03:30:24;;;;;;;78.05;28.85;;;;;;;;;;4989912;28;20034;-63
2022/12/07 03:32:55;;;;;;;75.55;28.48;;;;;;;;;;4990332;28;20113;-63
2022/12/07 03:35:25;;;;;;;85.05;28.02;;;;;;;;;;4990428;28;20046;-63
2022/12/07 03:38:16;;;;;;;89.03;30.02;;;;;;;;;;4990563;28;20145;-63
2022/12/07 03:40:53;;;;;;;79.20;28.67;;;;;;;;;;4992491;28;20145;-63
2022/12/07 03:43:21;;;;;;;71.80;27.63;;;;;;;;;;4990374;28;20454;-63
2022/12/07 03:45:56;;;;;;;77.43;28.85;;;;;;;;;;4990425;28;20164;-64
2022/12/07 03:48:31;;;;;;;85.78;29.80;;;;;;;;;;4990791;28;20042;-63
2022/12/07 03:51:09;;;;;;;82.93;30.63;;;;;;;;;;4990478;28;20499;-63
2022/12/07 03:53:42;;;;;;;87.13;30.73;;;;;;;;;;4990316;28;20046;-63
2022/12/07 03:56:10;;;;;;;76.43;26.85;;;;;;;;;;4988982;28;20373;-63
2022/12/07 03:58:39;;;;;;;80.68;29.25;;;;;;;;;;4990439;28;20073;-63
2022/12/07 04:01:06;;;;;;;86.90;29.58;;;;;;;;;;4989048;28;20408;-63
2022/12/07 04:03:34;;;;;;;71.65;27.63;;;;;;;;;;4990590;28;20050;-63
2022/12/07 04:06:01;;;;;;;74.78;28.25;;;;;;;;;;4990284;28;20050;-63
2022/12/07 04:08:29;;;;;;;72.45;26.02;;;;;;;;;;4990172;28;20046;-63
2022/12/07 04:10:56;;;;;;;70.20;28.00;;;;;;;;;;4990050;28;20056;-63
2022/12/07 04:13:24;;;;;;;73.55;27.23;;;;;;;;;;4990183;28;20487;-63
2022/12/07 04:15:51;;;;;;;68.20;27.40;;;;;;;;;;4990245;28;20046;-64
2022/12/07 04:18:19;;;;;;;75.55;28.13;;;;;;;;;;4990395;28;20136;-63
2022/12/07 04:20:46;;;;;;;70.32;27.35;;;;;;;;;;4990391;28;20050;-64
2022/12/07 04:23:14;;;;;;;113.00;31.02;;;;;;;;;;4990201;28;20050;-63
2022/12/07 04:25:41;;;;;;;483.38;80.45;;;;;;;;;;4990130;28;20107;-63
2022/12/07 04:28:08;;;;;;;133.82;36.72;;;;;;;;;;4989929;28;20064;-65
2022/12/07 04:30:36;;;;;;;280.55;50.03;;;;;;;;;;4989921;28;20488;-63
2022/12/07 04:33:03;;;;;;;432.55;73.85;;;;;;;;;;4989785;28;20047;-62
2022/12/07 04:35:31;;;;;;;540.30;92.90;;;;;;;;;;4989810;28;20054;-63
2022/12/07 04:37:58;;;;;;;123.90;38.72;;;;;;;;;;4989927;28;20052;-63
2022/12/07 04:40:26;;;;;;;341.17;69.07;;;;;;;;;;4989864;28;20549;-63
2022/12/07 04:42:53;;;;;;;1929.80;282.70;;;;;;;;;;4991459;28;20046;-63
2022/12/07 04:45:20;;;;;;;588.38;98.85;;;;;;;;;;4993207;28;20763;-63
2022/12/07 04:47:48;;;;;;;446.02;88.40;;;;;;;;;;4993056;28;20046;-63
2022/12/07 04:50:15;;;;;;;391.90;208.60;;;;;;;;;;4993098;28;20074;-63
2022/12/07 04:52:43;;;;;;;558.88;248.48;;;;;;;;;;4993051;28;20043;-62
2022/12/07 04:55:10;;;;;;;543.65;257.90;;;;;;;;;;4993000;28;20042;-63
2022/12/07 04:57:38;;;;;;;371.17;163.98;;;;;;;;;;4993201;28;20050;-63
2022/12/07 05:00:05;;;;;;;90.50;30.48;;;;;;;;;;4992401;28;20038;-63
2022/12/07 05:02:33;;;;;;;250.63;101.68;;;;;;;;;;4991373;28;20416;-63
2022/12/07 05:05:00;;;;;;;125.57;46.55;;;;;;;;;;4993053;28;20069;-63
2022/12/07 05:07:28;;;;;;;287.17;126.25;;;;;;;;;;4992164;28;20046;-63
2022/12/07 05:09:55;;;;;;;163.70;63.75;;;;;;;;;;4992664;28;20042;-63
2022/12/07 05:12:23;;;;;;;250.07;106.05;;;;;;;;;;4992568;28;20046;-63
2022/12/07 05:14:50;;;;;;;137.15;56.10;;;;;;;;;;4992861;28;20484;-63
2022/12/07 05:17:18;;;;;;;212.25;87.38;;;;;;;;;;4992651;28;20727;-63
2022/12/07 05:19:45;;;;;;;110.65;43.90;;;;;;;;;;4992496;28;20512;-62
2022/12/07 05:22:13;;;;;;;83.68;33.25;;;;;;;;;;4992518;28;20049;-62
2022/12/07 05:24:40;;;;;;;115.78;48.38;;;;;;;;;;4992443;28;20496;-62
2022/12/07 05:27:08;;;;;;;95.80;42.78;;;;;;;;;;4992431;28;20052;-62
2022/12/07 05:29:35;;;;;;;122.00;55.20;;;;;;;;;;4992448;28;20076;-62
2022/12/07 05:32:03;;;;;;;123.32;55.38;;;;;;;;;;4992545;28;20448;-63
2022/12/07 05:34:30;;;;;;;127.82;55.78;;;;;;;;;;4992439;28;20051;-62
2022/12/07 05:36:58;;;;;;;100.30;42.30;;;;;;;;;;4992115;28;20118;-63
2022/12/07 05:39:25;;;;;;;154.13;67.78;;;;;;;;;;4992221;28;20050;-63
2022/12/07 05:44:39;;;;;;;99.85;42.30;;;;;;;;;;4992122;28;20468;-63
2022/12/07 05:47:07;;;;;;;103.45;41.97;;;;;;;;;;4992275;28;20046;-63
2022/12/07 05:49:34;;;;;;;118.20;45.72;;;;;;;;;;4991005;28;20113;-63
2022/12/07 05:52:02;;;;;;;71.75;27.05;;;;;;;;;;4990855;28;20442;-63
2022/12/07 05:54:30;;;;;;;59.75;24.13;;;;;;;;;;4991211;28;20035;-62
2022/12/07 05:56:57;;;;;;;80.80;36.05;;;;;;;;;;4992102;28;20042;-63
2022/12/07 05:59:27;;;;;;;61.55;25.70;;;;;;;;;;4992114;28;20042;-63
2022/12/07 06:01:56;;;;;;;55.42;23.65;;;;;;;;;;4991865;28;20050;-62
2022/12/07 06:04:25;;;;;;;58.80;24.13;;;;;;;;;;4992536;28;20039;-63
2022/12/07 06:06:52;;;;;;;73.82;30.45;;;;;;;;;;4993046;28;20050;-63
2022/12/07 06:09:20;;;;;;;86.93;34.65;;;;;;;;;;4999498;28;20117;-63
2022/12/07 06:14:34;;;;;;;68.40;28.35;;;;;;;;;;5011168;28;20514;-63
2022/12/07 06:17:02;;;;;;;59.92;24.98;;;;;;;;;;5011321;28;20395;-63
2022/12/07 06:19:30;;;;;;;82.72;32.97;;;;;;;;;;5011318;28;20054;-63
2022/12/07 06:21:57;;;;;;;54.15;22.60;;;;;;;;;;5011522;28;20042;-63
2022/12/07 06:24:25;;;;;;;73.65;28.80;;;;;;;;;;5011147;28;20092;-64
2022/12/07 06:26:53;;;;;;;79.18;30.98;;;;;;;;;;5009988;28;20050;-64
2022/12/07 06:29:21;;;;;;;72.95;28.95;;;;;;;;;;5011337;28;20064;-63
2022/12/07 06:31:49;;;;;;;56.50;23.05;;;;;;;;;;5011243;28;20050;-63
2022/12/07 06:34:18;;;;;;;57.38;23.42;;;;;;;;;;5011107;28;20113;-64
2022/12/07 06:36:50;;;;;;;45.90;21.80;;;;;;;;;;5011126;28;20049;-64
2022/12/07 06:39:21;;;;;;;44.22;21.95;;;;;;;;;;5011084;28;20079;-64
2022/12/07 06:41:49;;;;;;;41.80;20.00;;;;;;;;;;5010978;28;20050;-63
2022/12/07 06:44:16;;;;;;;39.85;21.05;;;;;;;;;;5010927;28;20125;-63
2022/12/07 06:46:44;;;;;;;39.47;19.80;;;;;;;;;;5011149;28;20042;-64
2022/12/07 06:49:12;;;;;;;41.75;22.10;;;;;;;;;;5011038;28;20034;-64
2022/12/07 06:51:42;;;;;;;39.58;20.13;;;;;;;;;;5010764;28;20042;-64
2022/12/07 06:54:13;;;;;;;45.17;21.20;;;;;;;;;;5010715;28;20132;-64
2022/12/07 06:56:41;;;;;;;37.35;20.40;;;;;;;;;;5010975;28;20038;-64
2022/12/07 06:59:08;;;;;;;39.55;21.50;;;;;;;;;;5010858;28;20046;-64
2022/12/07 07:01:36;;;;;;;32.75;18.92;;;;;;;;;;5010727;28;20039;-63
2022/12/07 07:04:04;;;;;;;36.72;19.63;;;;;;;;;;5010844;28;20442;-64
2022/12/07 07:06:32;;;;;;;30.92;17.33;;;;;;;;;;5009221;28;20048;-64
2022/12/07 07:08:59;;;;;;;30.10;17.00;;;;;;;;;;5010675;28;20054;-64
2022/12/07 07:11:27;;;;;;;29.67;17.45;;;;;;;;;;5009526;28;20446;-64
2022/12/07 07:13:56;;;;;;;30.25;15.82;;;;;;;;;;5010600;28;20055;-64
2022/12/07 07:16:24;;;;;;;30.63;15.55;;;;;;;;;;5010487;28;20407;-64
2022/12/07 07:18:51;;;;;;;32.83;15.68;;;;;;;;;;5010479;28;20042;-63
2022/12/07 07:21:19;;;;;;;29.70;16.50;;;;;;;;;;5010723;28;20411;-63
2022/12/07 07:23:46;;;;;;;30.33;15.38;;;;;;;;;;5010292;28;20111;-63
2022/12/07 07:26:14;;;;;;;30.48;15.43;;;;;;;;;;5010358;28;20272;-63
2022/12/07 07:28:49;;;;;;;29.42;15.02;;;;;;;;;;5010381;28;20487;-64
2022/12/07 07:31:16;;;;;;;36.33;16.50;;;;;;;;;;5010295;28;20121;-64
2022/12/07 07:33:45;;;;;;;35.05;18.08;;;;;;;;;;5010327;28;20066;-64
2022/12/07 07:36:13;;;;;;;31.77;16.58;;;;;;;;;;5010441;28;20038;-63
2022/12/07 07:38:40;;;;;;;38.70;17.73;;;;;;;;;;5010329;28;20044;-64
2022/12/07 07:41:08;;;;;;;34.67;17.02;;;;;;;;;;5010493;28;20090;-64
2022/12/07 07:43:35;;;;;;;37.60;18.63;;;;;;;;;;5010176;28;20151;-63
2022/12/07 07:46:02;;;;;;;40.45;17.60;;;;;;;;;;5010287;28;20077;-63
2022/12/07 07:48:30;;;;;;;35.13;18.58;;;;;;;;;;5010281;28;20124;-64
2022/12/07 07:50:58;;;;;;;36.75;16.33;;;;;;;;;;4993221;28;20437;-64
2022/12/07 07:53:25;;;;;;;37.30;18.35;;;;;;;;;;5010272;28;20066;-64
2022/12/07 07:55:53;;;;;;;36.00;16.95;;;;;;;;;;5008958;28;20544;-64
2022/12/07 07:58:21;;;;;;;31.50;16.23;;;;;;;;;;5010035;28;20037;-64
2022/12/07 08:00:49;;;;;;;37.08;18.20;;;;;;;;;;5010027;28;20038;-64
2022/12/07 08:03:16;;;;;;;38.40;18.52;;;;;;;;;;5009824;28;20044;-64
2022/12/07 08:05:44;;;;;;;37.83;18.10;;;;;;;;;;5008565;28;20088;-64
2022/12/07 08:08:11;;;;;;;38.03;17.95;;;;;;;;;;5009882;28;20049;-64
2022/12/07 08:10:39;;;;;;;36.13;18.00;;;;;;;;;;5010095;28;20030;-64
2022/12/07 08:13:15;;;;;;;36.10;17.75;;;;;;;;;;5009720;28;20080;-64
2022/12/07 08:15:44;;;;;;;35.13;17.13;;;;;;;;;;5009491;28;20091;-64
2022/12/07 08:18:12;;;;;;;32.35;16.15;;;;;;;;;;5011603;28;20405;-64
2022/12/07 08:20:40;;;;;;;34.70;16.63;;;;;;;;;;5013123;28;20073;-64
2022/12/07 08:23:08;;;;;;;29.15;14.90;;;;;;;;;;5012995;28;20049;-64
2022/12/07 08:25:36;;;;;;;29.25;14.55;;;;;;;;;;5011905;28;20057;-64
2022/12/07 08:28:04;;;;;;;31.20;14.98;;;;;;;;;;5013115;28;20050;-64
2022/12/07 08:30:31;;;;;;;27.90;14.13;;;;;;;;;;5012793;28;20050;-64
2022/12/07 08:32:59;;;;;;;35.25;17.83;;;;;;;;;;5013106;28;20452;-65
2022/12/07 08:35:27;;;;;;;35.75;16.98;;;;;;;;;;5012853;28;20057;-64
2022/12/07 08:37:57;;;;;;;33.45;16.73;;;;;;;;;;5012788;28;20391;-62
2022/12/07 08:40:24;;;;;;;34.95;15.85;;;;;;;;;;5012766;28;20439;-64
2022/12/07 08:42:52;;;;;;;32.72;16.15;;;;;;;;;;5012697;28;20046;-64
2022/12/07 08:45:20;;;;;;;32.95;16.00;;;;;;;;;;5012738;28;20505;-64
2022/12/07 08:47:53;;;;;;;34.20;16.92;;;;;;;;;;5012713;28;20034;-64
2022/12/07 08:50:21;;;;;;;32.78;15.15;;;;;;;;;;5012880;28;20095;-64
2022/12/07 08:52:49;;;;;;;32.08;16.17;;;;;;;;;;5012412;28;20047;-64
2022/12/07 08:55:17;;;;;;;29.65;16.27;;;;;;;;;;5013008;28;20037;-65
2022/12/07 08:57:44;;;;;;;32.00;16.08;;;;;;;;;;5012845;28;20056;-65
2022/12/07 09:00:12;;;;;;;32.13;16.17;;;;;;;;;;5012679;28;20042;-64
2022/12/07 09:02:39;;;;;;;34.20;16.00;;;;;;;;;;5012465;28;20053;-64
2022/12/07 09:05:07;;;;;;;29.63;15.30;;;;;;;;;;5012464;28;20057;-64
2022/12/07 09:07:42;;;;;;;;;;;;;;;;;;5013178;28;20515;-65
2022/12/07 09:10:10;;;;;;;30.55;15.05;;;;;;;;;;5012843;28;19928;-65
2022/12/07 09:12:37;;;;;;;32.47;15.82;;;;;;;;;;5012352;28;20501;-64
2022/12/07 09:15:05;;;;;;;33.67;16.90;;;;;;;;;;5012305;28;20083;-64
2022/12/07 09:17:34;;;;;;;35.30;17.55;;;;;;;;;;5012494;28;20067;-64
2022/12/07 09:20:01;;;;;;;31.20;16.25;;;;;;;;;;5012276;28;20042;-64
2022/12/07 09:22:30;;;;;;;33.15;16.42;;;;;;;;;;5012180;28;20129;-65
2022/12/07 09:24:58;;;;;;;30.02;16.30;;;;;;;;;;5012200;28;20058;-64
2022/12/07 09:27:26;;;;;;;33.40;16.70;;;;;;;;;;5012076;28;20551;-64
2022/12/07 09:29:53;;;;;;;28.95;15.48;;;;;;;;;;5012208;28;20041;-64
2022/12/07 09:32:21;;;;;;;30.15;16.52;;;;;;;;;;5011937;28;20046;-65
2022/12/07 09:34:49;;;;;;;23.58;12.40;;;;;;;;;;5011990;28;20042;-64
2022/12/07 09:37:17;;;;;;;27.15;15.32;;;;;;;;;;5011966;28;20480;-64
2022/12/07 09:39:44;;;;;;;27.92;14.50;;;;;;;;;;5012040;28;20042;-65
2022/12/07 09:42:36;;;;;;;28.63;14.52;;;;;;;;;;5012047;28;20052;-64
2022/12/07 09:45:05;;;;;;;29.83;15.75;;;;;;;;;;5011928;28;20564;-65
2022/12/07 09:47:36;;;;;;;28.23;16.05;;;;;;;;;;5011961;28;20045;-65
2022/12/07 09:50:13;;;;;;;41.10;19.60;;;;;;;;;;5010628;28;20038;-64
2022/12/07 09:52:40;;;;;;;131.90;30.75;;;;;;;;;;5011921;28;20045;-65
2022/12/07 09:55:11;;;;;;;349.75;71.28;;;;;;;;;;5011900;28;20045;-64
2022/12/07 09:57:38;;;;;;;969.50;258.50;;;;;;;;;;5011674;28;20499;-64
2022/12/07 10:00:15;;;;;;;670.63;287.45;;;;;;;;;;5011981;28;20096;-65
2022/12/07 10:02:45;;;;;;;446.30;119.85;;;;;;;;;;5011812;28;20422;-64
2022/12/07 10:05:18;;;;;;;174.32;42.05;;;;;;;;;;5011660;28;20046;-64
2022/12/07 10:07:51;;;;;;;73.75;25.13;;;;;;;;;;5011653;28;20098;-64
2022/12/07 10:10:21;;;;;;;21.88;12.13;;;;;;;;;;5011520;28;20037;-64
2022/12/07 10:12:59;;;;;;;128.15;37.05;;;;;;;;;;5011512;28;20046;-64
2022/12/07 10:15:45;;;;;;;45.97;18.27;;;;;;;;;;5010346;28;20050;-64
2022/12/07 10:18:31;;;;;;;43.38;18.23;;;;;;;;;;5011337;28;20050;-64
2022/12/07 10:21:16;;;;;;;32.42;16.30;;;;;;;;;;5011517;28;20380;-64
2022/12/07 10:24:00;;;;;;;34.22;16.80;;;;;;;;;;5011388;28;20052;-64
2022/12/07 10:26:28;;;;;;;32.28;16.65;;;;;;;;;;5011205;28;20038;-65
2022/12/07 10:28:56;;;;;;;32.25;16.58;;;;;;;;;;5011595;28;20050;-65
2022/12/07 10:31:24;;;;;;;33.67;17.58;;;;;;;;;;5011416;28;20049;-63
2022/12/07 10:33:54;;;;;;;46.50;18.88;;;;;;;;;;5011152;28;20038;-63
2022/12/07 10:36:24;;;;;;;36.08;19.02;;;;;;;;;;5011350;28;20113;-64
2022/12/07 10:38:53;;;;;;;30.45;16.15;;;;;;;;;;5011164;28;20154;-65
2022/12/07 10:41:20;;;;;;;28.98;15.60;;;;;;;;;;5010932;28;20124;-64
2022/12/07 10:43:52;;;;;;;32.40;15.70;;;;;;;;;;5011039;28;20077;-64
2022/12/07 10:46:29;;;;;;;32.70;16.63;;;;;;;;;;5011011;28;20038;-65
2022/12/07 10:48:57;;;;;;;31.17;15.38;;;;;;;;;;5011099;28;20050;-65
2022/12/07 10:51:27;;;;;;;27.45;15.20;;;;;;;;;;5010990;28;20050;-65
2022/12/07 10:53:55;;;;;;;31.58;16.23;;;;;;;;;;5010928;28;20042;-64
2022/12/07 10:56:50;;;;;;;30.70;15.88;;;;;;;;;;5010897;28;20111;-64
2022/12/07 10:59:31;;;;;;;32.17;16.38;;;;;;;;;;5010952;28;20045;-64
2022/12/07 11:02:10;;;;;;;29.23;15.63;;;;;;;;;;5010913;28;20042;-64
2022/12/07 11:04:43;;;;;;;34.53;16.42;;;;;;;;;;5011028;28;20050;-64
2022/12/07 11:07:13;;;;;;;30.20;15.70;;;;;;;;;;5010739;28;20038;-64
2022/12/07 11:10:07;;;;;;;26.30;15.45;;;;;;;;;;5010611;28;20483;-64
2022/12/07 11:12:43;;;;;;;35.53;16.95;;;;;;;;;;5010675;28;20136;-64
2022/12/07 11:15:17;;;;;;;32.33;16.33;;;;;;;;;;5010613;28;20200;-64
2022/12/07 11:17:45;;;;;;;30.10;15.57;;;;;;;;;;5010461;28;20046;-64
2022/12/07 11:20:22;;;;;;;26.55;15.10;;;;;;;;;;5010566;28;20130;-64
2022/12/07 11:22:49;;;;;;;28.50;15.77;;;;;;;;;;5010317;28;20041;-65
2022/12/07 11:25:32;;;;;;;30.40;16.85;;;;;;;;;;5010402;28;20054;-64
2022/12/07 11:28:18;;;;;;;29.42;16.13;;;;;;;;;;5010491;28;20121;-64
2022/12/07 11:31:04;;;;;;;26.15;15.13;;;;;;;;;;5010336;28;20041;-65
2022/12/07 11:33:44;;;;;;;27.85;16.42;;;;;;;;;;5010455;28;20042;-65
2022/12/07 11:36:31;;;;;;;25.05;14.80;;;;;;;;;;5009177;28;20057;-64
2022/12/07 11:39:02;;;;;;;24.35;13.98;;;;;;;;;;5010287;28;20510;-64
2022/12/07 11:41:36;;;;;;;24.33;15.07;;;;;;;;;;5010308;28;20050;-64
2022/12/07 11:44:07;;;;;;;22.02;14.20;;;;;;;;;;5010164;28;20465;-64
2022/12/07 11:46:48;;;;;;;24.63;14.40;;;;;;;;;;5010451;28;20103;-64
2022/12/07 11:49:27;;;;;;;32.67;15.57;;;;;;;;;;5008985;28;20041;-64
2022/12/07 11:51:58;;;;;;;23.25;13.80;;;;;;;;;;5009090;28;20049;-64
2022/12/07 11:54:29;;;;;;;23.40;14.15;;;;;;;;;;5009954;28;20117;-64
2022/12/07 11:57:00;;;;;;;35.28;18.33;;;;;;;;;;5009756;28;20124;-64
2022/12/07 11:59:33;;;;;;;31.88;17.75;;;;;;;;;;5009700;28;20079;-64
2022/12/07 12:02:10;;;;;;;31.20;18.48;;;;;;;;;;5009760;28;20038;-64
2022/12/07 12:04:49;;;;;;;30.08;17.33;;;;;;;;;;5009959;28;20062;-64
2022/12/07 12:07:20;;;;;;;30.42;17.60;;;;;;;;;;5009779;28;20046;-64
2022/12/07 12:10:17;;;;;;;28.92;17.20;;;;;;;;;;5009889;28;20042;-64
2022/12/07 12:12:47;;;;;;;34.85;18.90;;;;;;;;;;5009713;28;20564;-65
2022/12/07 12:15:35;;;;;;;36.20;19.67;;;;;;;;;;5009108;28;20102;-65
2022/12/07 12:18:29;;;;;;;35.53;20.55;;;;;;;;;;5007980;28;20091;-63
2022/12/07 12:21:01;;;;;;;34.78;20.65;;;;;;;;;;4991824;28;20058;-63
2022/12/07 12:23:43;;;;;;;31.58;19.98;;;;;;;;;;4989771;28;20442;-65
2022/12/07 12:26:20;;;;;;;33.67;19.88;;;;;;;;;;4990002;28;20084;-63
2022/12/07 12:29:10;;;;;;;32.50;19.48;;;;;;;;;;4989180;28;20066;-62
2022/12/07 12:31:39;;;;;;;44.70;24.48;;;;;;;;;;4990281;28;20062;-63
2022/12/07 12:34:33;;;;;;;30.23;18.35;;;;;;;;;;4990187;28;20038;-63
2022/12/07 12:37:00;;;;;;;30.08;16.50;;;;;;;;;;4996429;28;20115;-63
2022/12/07 12:39:28;;;;;;;30.85;17.58;;;;;;;;;;4989915;28;20107;-63
2022/12/07 12:44:33;;;;;;;29.75;17.25;;;;;;;;;;4989836;28;20050;-63
2022/12/07 12:47:04;;;;;;;35.00;19.20;;;;;;;;;;4989875;28;20038;-63
2022/12/07 12:49:33;;;;;;;31.02;18.27;;;;;;;;;;4989972;28;20127;-63
2022/12/07 12:52:19;;;;;;;37.05;20.60;;;;;;;;;;4988862;28;20553;-63
2022/12/07 12:55:13;;;;;;;29.75;17.42;;;;;;;;;;4989872;28;20073;-63
2022/12/07 12:57:40;;;;;;;29.38;17.60;;;;;;;;;;4990859;28;20058;-64
2022/12/07 13:00:21;;;;;;;33.38;19.00;;;;;;;;;;4989713;28;20553;-63
2022/12/07 13:02:52;;;;;;;31.85;18.15;;;;;;;;;;4989799;28;20043;-62
2022/12/07 13:05:21;;;;;;;35.45;19.70;;;;;;;;;;4991863;28;20057;-62
2022/12/07 13:07:52;;;;;;;33.88;18.92;;;;;;;;;;4991631;28;20098;-62
2022/12/07 13:10:29;;;;;;;30.15;16.52;;;;;;;;;;4992817;28;20057;-62
2022/12/07 13:13:02;;;;;;;33.35;18.42;;;;;;;;;;4992850;28;20050;-62
2022/12/07 13:15:38;;;;;;;36.30;19.52;;;;;;;;;;4992918;28;20052;-62
2022/12/07 13:18:09;;;;;;;37.60;19.00;;;;;;;;;;4992946;28;20131;-62
2022/12/07 13:20:50;;;;;;;32.60;17.90;;;;;;;;;;4992733;28;20395;-62
2022/12/07 13:23:19;;;;;;;33.70;18.23;;;;;;;;;;4992974;28;20088;-62
2022/12/07 13:25:52;;;;;;;34.90;19.50;;;;;;;;;;4991522;28;20077;-62
2022/12/07 13:28:20;;;;;;;57.20;26.65;;;;;;;;;;4992780;28;20062;-62
2022/12/07 13:30:50;;;;;;;40.63;20.40;;;;;;;;;;4991783;28;20553;-62
2022/12/07 13:33:19;;;;;;;36.90;19.02;;;;;;;;;;4992479;28;20085;-62
2022/12/07 13:35:47;;;;;;;34.15;17.75;;;;;;;;;;4992566;28;20120;-62
2022/12/07 13:38:26;;;;;;;37.60;22.88;;;;;;;;;;4992521;28;20053;-62
2022/12/07 13:41:04;;;;;;;41.67;21.70;;;;;;;;;;4991331;28;20472;-62
2022/12/07 13:43:32;;;;;;;34.42;17.63;;;;;;;;;;4992669;28;20050;-62
2022/12/07 13:46:00;;;;;;;34.80;18.13;;;;;;;;;;4992415;28;20038;-62
2022/12/07 13:48:32;;;;;;;34.38;18.50;;;;;;;;;;4992216;28;20108;-62
2022/12/07 13:51:01;;;;;;;33.72;17.95;;;;;;;;;;4992406;28;20117;-62
2022/12/07 13:53:30;;;;;;;34.05;18.88;;;;;;;;;;4991145;28;20047;-62
2022/12/07 13:55:58;;;;;;;30.17;17.08;;;;;;;;;;4990970;28;20492;-62
2022/12/07 13:58:27;;;;;;;38.15;18.98;;;;;;;;;;4992387;28;20112;-62
2022/12/07 14:00:54;;;;;;;38.97;20.02;;;;;;;;;;4992341;28;20046;-62
2022/12/07 14:03:32;;;;;;;41.78;21.17;;;;;;;;;;4992069;28;20365;-63
2022/12/07 14:06:21;;;;;;;37.88;19.92;;;;;;;;;;4992243;28;20121;-63
2022/12/07 14:08:48;;;;;;;35.15;19.90;;;;;;;;;;4992115;28;20039;-63
2022/12/07 14:11:23;;;;;;;42.30;22.08;;;;;;;;;;4992072;28;20038;-63
2022/12/07 14:13:54;;;;;;;40.38;21.85;;;;;;;;;;4992017;28;20484;-63
2022/12/07 14:16:27;;;;;;;37.72;21.35;;;;;;;;;;4991026;28;20042;-64
2022/12/07 14:18:56;;;;;;;42.20;22.17;;;;;;;;;;4992150;28;20046;-64
2022/12/07 14:21:26;;;;;;;50.03;27.02;;;;;;;;;;4991977;28;20078;-64
2022/12/07 14:24:08;;;;;;;46.90;25.42;;;;;;;;;;4992026;28;20062;-63
2022/12/07 14:26:36;;;;;;;44.95;24.25;;;;;;;;;;4991952;28;20043;-63
2022/12/07 14:29:22;;;;;;;43.10;23.13;;;;;;;;;;4992096;28;20123;-61
2022/12/07 14:31:49;;;;;;;49.10;25.27;;;;;;;;;;4992127;28;20066;-64
2022/12/07 14:34:17;;;;;;;56.85;29.42;;;;;;;;;;4991669;28;20365;-63
2022/12/07 14:36:44;;;;;;;58.13;29.88;;;;;;;;;;4991663;28;20053;-63
2022/12/07 14:39:12;;;;;;;52.80;28.95;;;;;;;;;;4991497;28;20092;-63
2022/12/07 14:41:52;;;;;;;48.55;30.20;;;;;;;;;;4991898;28;20130;-63
2022/12/07 14:44:21;;;;;;;71.57;41.47;;;;;;;;;;4991154;28;20430;-64
2022/12/07 14:46:53;;;;;;;44.75;25.27;;;;;;;;;;4991248;28;20046;-63